createdAt,value
2018-09-24T00:00:47.893Z,12.60
2018-09-24T00:03:16.249Z,12.60
2018-09-24T00:05:44.517Z,12.59
2018-09-24T00:08:12.765Z,12.57
2018-09-24T00:10:41.073Z,12.55
2018-09-24T00:13:09.370Z,12.54
2018-09-24T00:15:37.702Z,12.54
2018-09-24T00:18:05.975Z,12.53
2018-09-24T00:20:34.237Z,12.53
2018-09-24T00:23:02.513Z,12.51
2018-09-24T00:25:30.867Z,12.46
2018-09-24T00:27:59.268Z,12.44
2018-09-24T00:30:27.594Z,12.42
2018-09-24T00:32:55.853Z,12.40
2018-09-24T00:35:24.104Z,12.40
2018-09-24T00:37:52.480Z,12.39
2018-09-24T00:40:20.955Z,12.36
2018-09-24T00:42:49.205Z,12.35
2018-09-24T00:45:17.501Z,12.32
2018-09-24T00:47:45.752Z,12.21
2018-09-24T00:50:14.031Z,12.27
2018-09-24T00:52:42.413Z,12.24
2018-09-24T00:55:10.711Z,12.20
2018-09-24T00:57:38.981Z,12.13
2018-09-24T01:00:07.370Z,12.10
2018-09-24T01:02:35.618Z,12.07
2018-09-24T01:05:03.953Z,12.03
2018-09-24T01:07:32.229Z,12.00
2018-09-24T01:10:00.553Z,11.97
2018-09-24T01:12:28.812Z,11.96
2018-09-24T01:14:57.157Z,11.95
2018-09-24T01:17:25.506Z,11.95
2018-09-24T01:19:53.773Z,11.95
2018-09-24T01:22:22.114Z,11.96
2018-09-24T01:24:50.362Z,11.94
2018-09-24T01:27:18.598Z,11.94
2018-09-24T01:29:46.851Z,11.94
2018-09-24T01:32:15.105Z,11.94
2018-09-24T01:34:43.382Z,11.98
2018-09-24T01:37:11.662Z,12.00
2018-09-24T01:39:39.916Z,11.97
2018-09-24T01:42:08.227Z,11.96
2018-09-24T01:44:36.511Z,11.96
2018-09-24T01:47:04.772Z,12.00
2018-09-24T01:49:33.005Z,12.02
2018-09-24T01:52:01.313Z,12.00
2018-09-24T01:54:30.475Z,11.97
2018-09-24T01:56:58.843Z,11.95
2018-09-24T01:59:27.213Z,11.90
2018-09-24T02:01:55.500Z,11.87
2018-09-24T02:04:23.781Z,11.87
2018-09-24T02:06:56.246Z,11.87
2018-09-24T02:09:24.626Z,11.87
2018-09-24T02:11:52.945Z,11.85
2018-09-24T02:14:21.193Z,11.86
2018-09-24T02:16:49.456Z,11.85
2018-09-24T02:19:17.924Z,11.89
2018-09-24T02:21:46.176Z,11.89
2018-09-24T02:24:14.442Z,11.91
2018-09-24T02:26:42.709Z,11.92
2018-09-24T02:29:11.186Z,11.91
2018-09-24T02:31:39.672Z,11.90
2018-09-24T02:34:08.783Z,11.90
2018-09-24T02:36:37.167Z,11.91
2018-09-24T02:39:07.322Z,11.90
2018-09-24T02:41:35.898Z,11.91
2018-09-24T02:44:04.308Z,11.93
2018-09-24T02:46:32.657Z,11.91
2018-09-24T02:49:02.982Z,11.90
2018-09-24T02:51:31.946Z,11.88
2018-09-24T02:54:00.213Z,11.88
2018-09-24T02:56:28.604Z,11.88
2018-09-24T02:58:56.953Z,11.89
2018-09-24T03:01:26.583Z,11.87
2018-09-24T03:03:54.813Z,11.87
2018-09-24T03:06:23.129Z,11.87
2018-09-24T03:08:51.373Z,11.88
2018-09-24T03:11:19.701Z,11.86
2018-09-24T03:13:48.173Z,11.85
2018-09-24T03:16:16.506Z,11.83
2018-09-24T03:18:47.098Z,11.83
2018-09-24T03:21:15.375Z,11.82
2018-09-24T03:23:43.693Z,11.80
2018-09-24T03:26:11.917Z,11.77
2018-09-24T03:28:40.180Z,11.76
2018-09-24T03:31:08.558Z,11.76
2018-09-24T03:33:36.934Z,11.76
2018-09-24T03:36:05.263Z,11.73
2018-09-24T03:38:33.597Z,11.72
2018-09-24T03:41:01.869Z,11.73
2018-09-24T03:43:30.145Z,11.71
2018-09-24T03:45:58.424Z,11.70
2018-09-24T03:48:26.708Z,11.69
2018-09-24T03:50:54.973Z,11.67
2018-09-24T03:53:23.251Z,11.59
2018-09-24T03:55:51.626Z,11.55
2018-09-24T03:58:20.106Z,11.52
2018-09-24T04:00:48.395Z,11.49
2018-09-24T04:03:16.710Z,11.52
2018-09-24T04:05:50.286Z,11.49
2018-09-24T04:08:23.840Z,11.48
2018-09-24T04:10:57.521Z,11.50
2018-09-24T04:13:31.153Z,11.51
2018-09-24T04:16:04.871Z,11.49
2018-09-24T04:18:38.483Z,11.51
2018-09-24T04:21:12.201Z,11.49
2018-09-24T04:23:45.893Z,11.47
2018-09-24T04:26:19.465Z,11.47
2018-09-24T04:28:53.005Z,11.46
2018-09-24T04:31:26.650Z,11.22
2018-09-24T04:34:00.168Z,11.50
2018-09-24T04:36:33.633Z,11.51
2018-09-24T04:39:07.175Z,11.52
2018-09-24T04:41:40.849Z,11.52
2018-09-24T04:44:14.507Z,11.51
2018-09-24T04:46:48.097Z,11.50
2018-09-24T04:49:21.763Z,11.48
2018-09-24T04:51:55.463Z,11.46
2018-09-24T04:54:29.152Z,11.45
2018-09-24T04:57:02.682Z,11.43
2018-09-24T04:59:36.286Z,11.41
2018-09-24T05:02:09.845Z,11.39
2018-09-24T05:04:43.476Z,11.35
2018-09-24T05:07:17.445Z,11.33
2018-09-24T05:09:51.043Z,11.32
2018-09-24T05:12:26.532Z,11.31
2018-09-24T05:15:07.338Z,11.31
2018-09-24T05:17:42.595Z,11.33
2018-09-24T05:20:16.542Z,11.31
2018-09-24T05:22:50.384Z,11.32
2018-09-24T05:25:24.050Z,11.32
2018-09-24T05:27:57.931Z,11.32
2018-09-24T05:30:31.601Z,11.33
2018-09-24T05:33:05.027Z,11.32
2018-09-24T05:35:38.580Z,11.32
2018-09-24T05:38:12.241Z,11.33
2018-09-24T05:40:45.778Z,11.33
2018-09-24T05:43:20.005Z,11.35
2018-09-24T05:45:53.381Z,11.36
2018-09-24T05:48:26.777Z,11.37
2018-09-24T05:51:00.453Z,11.38
2018-09-24T05:53:34.074Z,11.40
2018-09-24T05:56:07.652Z,11.41
2018-09-24T05:58:41.181Z,11.41
2018-09-24T06:01:14.691Z,11.43
2018-09-24T06:03:48.268Z,11.44
2018-09-24T06:06:21.885Z,11.45
2018-09-24T06:08:55.348Z,11.48
2018-09-24T06:11:29.025Z,11.50
2018-09-24T06:14:02.550Z,11.49
2018-09-24T06:16:36.157Z,11.51
2018-09-24T06:19:09.720Z,11.50
2018-09-24T06:21:43.381Z,11.51
2018-09-24T06:24:17.084Z,11.55
2018-09-24T06:26:50.758Z,11.58
2018-09-24T06:29:24.472Z,11.63
2018-09-24T06:31:58.187Z,11.65
2018-09-24T06:34:31.871Z,11.68
2018-09-24T06:37:05.465Z,11.73
2018-09-24T06:39:39.102Z,11.76
2018-09-24T06:42:12.722Z,11.77
2018-09-24T06:44:46.392Z,11.77
2018-09-24T06:47:20.156Z,11.80
2018-09-24T06:49:53.616Z,11.76
2018-09-24T07:01:05.375Z,11.74
2018-09-24T07:03:38.965Z,11.73
2018-09-24T07:06:12.621Z,11.72
2018-09-24T07:08:46.257Z,11.72
2018-09-24T07:11:20.019Z,11.73
2018-09-24T07:13:53.621Z,11.75
2018-09-24T07:16:27.329Z,11.79
2018-09-24T07:19:01.068Z,11.83
2018-09-24T07:21:34.816Z,11.87
2018-09-24T07:24:08.149Z,11.89
2018-09-24T07:26:41.803Z,11.90
2018-09-24T07:29:15.647Z,11.90
2018-09-24T07:31:49.346Z,11.89
2018-09-24T07:34:22.776Z,11.93
2018-09-24T07:36:56.462Z,12.00
2018-09-24T07:39:30.145Z,12.07
2018-09-24T07:42:03.958Z,12.09
2018-09-24T07:44:37.365Z,12.10
2018-09-24T07:47:10.866Z,12.13
2018-09-24T07:49:44.419Z,12.18
2018-09-24T07:52:17.951Z,12.20
2018-09-24T07:54:51.626Z,12.24
2018-09-24T07:57:25.256Z,12.29
2018-09-24T07:59:58.916Z,12.31
2018-09-24T08:02:32.616Z,12.36
2018-09-24T08:05:06.197Z,12.44
2018-09-24T08:07:39.742Z,12.51
2018-09-24T08:10:13.343Z,12.61
2018-09-24T08:12:46.868Z,12.65
2018-09-24T08:15:20.277Z,12.62
2018-09-24T08:17:53.664Z,12.60
2018-09-24T08:20:27.396Z,12.57
2018-09-24T08:23:00.867Z,12.60
2018-09-24T08:25:34.305Z,12.61
2018-09-24T08:28:07.964Z,12.64
2018-09-24T08:30:41.385Z,12.63
2018-09-24T08:33:14.949Z,12.63
2018-09-24T08:35:48.501Z,12.63
2018-09-24T08:38:22.024Z,12.64
2018-09-24T08:40:55.635Z,12.68
2018-09-24T08:43:29.160Z,12.78
2018-09-24T08:46:02.849Z,12.85
2018-09-24T08:48:36.409Z,12.92
2018-09-24T08:51:09.896Z,12.99
2018-09-24T08:53:43.460Z,13.06
2018-09-24T08:56:16.869Z,13.10
2018-09-24T08:58:50.473Z,13.10
2018-09-24T09:01:23.985Z,13.10
2018-09-24T09:03:57.518Z,13.11
2018-09-24T09:06:30.989Z,13.12
2018-09-24T09:09:04.563Z,13.14
2018-09-24T09:11:38.034Z,13.18
2018-09-24T09:14:11.756Z,13.27
2018-09-24T09:16:45.281Z,13.36
2018-09-24T09:19:18.790Z,13.45
2018-09-24T09:21:52.514Z,13.50
2018-09-24T09:24:25.930Z,13.61
2018-09-24T09:26:59.641Z,13.68
2018-09-24T09:29:33.443Z,13.77
2018-09-24T09:32:06.842Z,13.86
2018-09-24T09:34:40.464Z,13.92
2018-09-24T09:37:14.114Z,13.95
2018-09-24T09:39:47.850Z,13.95
2018-09-24T09:42:21.290Z,13.98
2018-09-24T09:44:54.812Z,14.08
2018-09-24T09:47:28.583Z,14.18
2018-09-24T09:50:02.198Z,14.25
2018-09-24T09:52:35.672Z,14.33
2018-09-24T09:55:09.248Z,14.39
2018-09-24T09:57:42.812Z,14.45
2018-09-24T10:00:16.398Z,14.47
2018-09-24T10:02:49.961Z,14.61
2018-09-24T10:05:23.496Z,14.85
2018-09-24T10:07:57.014Z,15.04
2018-09-24T10:10:30.629Z,15.04
2018-09-24T10:13:04.327Z,14.91
2018-09-24T10:15:38.049Z,14.81
2018-09-24T10:18:11.587Z,14.84
2018-09-24T10:20:45.090Z,14.83
2018-09-24T10:23:18.759Z,14.74
2018-09-24T10:25:52.295Z,14.71
2018-09-24T10:28:26.037Z,14.77
2018-09-24T10:30:59.597Z,14.77
2018-09-24T10:33:33.317Z,14.80
2018-09-24T10:36:10.693Z,14.82
2018-09-24T10:38:44.321Z,14.99
2018-09-24T10:41:17.873Z,15.18
2018-09-24T10:43:51.390Z,15.26
2018-09-24T10:46:24.959Z,15.24
2018-09-24T10:48:58.504Z,15.18
2018-09-24T10:51:32.235Z,15.15
2018-09-24T10:54:05.595Z,15.10
2018-09-24T10:56:39.309Z,15.02
2018-09-24T10:59:13.003Z,14.99
2018-09-24T11:01:46.658Z,14.97
2018-09-24T11:04:20.321Z,14.97
2018-09-24T11:06:53.959Z,14.94
2018-09-24T11:09:27.625Z,14.87
2018-09-24T11:12:01.322Z,14.75
2018-09-24T11:14:34.957Z,14.67
2018-09-24T11:17:08.644Z,14.64
2018-09-24T11:19:41.814Z,14.61
2018-09-24T11:22:15.372Z,14.61
2018-09-24T11:24:48.922Z,14.58
2018-09-24T11:27:22.566Z,14.67
2018-09-24T11:29:56.218Z,15.00
2018-09-24T11:32:29.824Z,15.33
2018-09-24T11:35:03.458Z,15.55
2018-09-24T11:37:37.066Z,15.86
2018-09-24T11:40:10.777Z,16.13
2018-09-24T11:42:44.589Z,16.34
2018-09-24T11:45:18.134Z,16.38
2018-09-24T11:47:51.646Z,16.25
2018-09-24T11:50:25.206Z,16.18
2018-09-24T11:52:58.873Z,16.19
2018-09-24T11:55:32.407Z,16.33
2018-09-24T11:58:06.143Z,16.45
2018-09-24T12:00:39.833Z,16.54
2018-09-24T12:03:13.533Z,16.74
2018-09-24T12:05:47.236Z,17.05
2018-09-24T12:08:20.873Z,17.26
2018-09-24T12:10:54.545Z,17.15
2018-09-24T12:13:27.955Z,17.20
2018-09-24T12:16:01.620Z,17.22
2018-09-24T12:18:35.321Z,17.07
2018-09-24T12:21:09.045Z,17.16
2018-09-24T12:23:42.499Z,17.27
2018-09-24T12:26:16.134Z,17.30
2018-09-24T12:28:49.808Z,17.37
2018-09-24T12:31:23.202Z,17.52
2018-09-24T12:33:56.837Z,17.80
2018-09-24T12:36:30.441Z,18.09
2018-09-24T12:39:04.082Z,18.35
2018-09-24T12:41:37.853Z,18.56
2018-09-24T12:44:11.472Z,18.75
2018-09-24T12:46:45.055Z,19.02
2018-09-24T12:49:18.756Z,19.30
2018-09-24T12:51:52.311Z,19.74
2018-09-24T12:54:25.914Z,19.99
2018-09-24T12:56:59.442Z,19.92
2018-09-24T12:59:32.950Z,19.46
2018-09-24T13:02:06.497Z,18.96
2018-09-24T13:04:40.005Z,18.52
2018-09-24T13:07:13.644Z,18.08
2018-09-24T13:09:47.138Z,17.68
2018-09-24T13:12:20.645Z,17.38
2018-09-24T13:14:54.369Z,17.13
2018-09-24T13:17:28.102Z,16.94
2018-09-24T13:20:01.749Z,16.78
2018-09-24T13:22:35.330Z,16.64
2018-09-24T13:25:09.080Z,16.47
2018-09-24T13:27:42.560Z,16.28
2018-09-24T13:30:16.272Z,16.15
2018-09-24T13:32:50.024Z,16.06
2018-09-24T13:35:23.677Z,16.04
2018-09-24T13:37:57.542Z,16.01
2018-09-24T13:40:30.926Z,15.99
2018-09-24T13:43:04.449Z,15.95
2018-09-24T13:45:37.958Z,15.85
2018-09-24T13:48:11.679Z,15.83
2018-09-24T13:50:45.228Z,15.90
2018-09-24T13:53:18.923Z,16.28
2018-09-24T13:55:52.351Z,16.43
2018-09-24T13:58:25.955Z,16.35
2018-09-24T14:00:59.547Z,16.26
2018-09-24T14:03:36.920Z,16.18
2018-09-24T14:06:10.597Z,16.24
2018-09-24T14:08:44.187Z,16.30
2018-09-24T14:11:17.863Z,16.29
2018-09-24T14:13:51.501Z,16.23
2018-09-24T14:16:25.194Z,16.21
2018-09-24T14:18:58.900Z,16.22
2018-09-24T14:21:32.375Z,16.22
2018-09-24T14:24:05.995Z,16.26
2018-09-24T14:26:39.562Z,16.35
2018-09-24T14:29:13.781Z,16.30
2018-09-24T14:31:47.407Z,16.21
2018-09-24T14:34:20.952Z,16.22
2018-09-24T14:36:54.604Z,16.28
2018-09-24T14:39:28.184Z,16.28
2018-09-24T14:42:01.816Z,16.24
2018-09-24T14:44:35.441Z,16.09
2018-09-24T14:47:09.119Z,16.09
2018-09-24T14:49:42.818Z,16.09
2018-09-24T14:52:16.176Z,16.13
2018-09-24T14:54:49.822Z,16.18
2018-09-24T14:57:23.517Z,16.17
2018-09-24T14:59:56.989Z,16.10
2018-09-24T15:02:30.740Z,16.06
2018-09-24T15:05:04.221Z,15.98
2018-09-24T15:07:37.892Z,15.90
2018-09-24T15:10:11.501Z,15.85
2018-09-24T15:12:45.066Z,15.72
2018-09-24T15:15:18.554Z,15.61
2018-09-24T15:17:51.958Z,15.56
2018-09-24T15:20:25.552Z,15.53
2018-09-24T15:22:59.097Z,15.50
2018-09-24T15:25:32.787Z,15.52
2018-09-24T15:28:06.544Z,15.52
2018-09-24T15:30:40.113Z,15.47
2018-09-24T15:33:13.716Z,15.44
2018-09-24T15:35:47.297Z,15.41
2018-09-24T15:38:20.893Z,15.38
2018-09-24T15:40:54.512Z,15.34
2018-09-24T15:43:27.901Z,15.26
2018-09-24T15:46:01.416Z,15.27
2018-09-24T15:48:34.994Z,15.27
2018-09-24T15:51:08.525Z,15.31
2018-09-24T15:53:42.017Z,15.35
2018-09-24T15:56:15.518Z,15.38
2018-09-24T15:58:48.971Z,15.35
2018-09-24T16:01:22.593Z,15.33
2018-09-24T16:03:56.105Z,15.33
2018-09-24T16:06:29.707Z,15.31
2018-09-24T16:09:03.234Z,15.29
2018-09-24T16:11:36.726Z,15.28
2018-09-24T16:14:10.370Z,15.31
2018-09-24T16:16:43.986Z,15.29
2018-09-24T16:19:17.694Z,15.31
2018-09-24T16:21:51.877Z,15.32
2018-09-24T16:24:25.430Z,15.30
2018-09-24T16:26:59.130Z,15.33
2018-09-24T16:29:32.725Z,15.35
2018-09-24T16:32:06.262Z,15.37
2018-09-24T16:34:39.924Z,15.38
2018-09-24T16:37:13.428Z,15.38
2018-09-24T16:39:46.982Z,15.39
2018-09-24T16:42:20.721Z,15.39
2018-09-24T16:44:54.298Z,15.38
2018-09-24T16:47:27.949Z,15.36
2018-09-24T16:50:01.731Z,15.37
2018-09-24T16:52:35.397Z,15.37
2018-09-24T16:55:08.927Z,15.38
2018-09-24T16:57:42.530Z,15.35
2018-09-24T17:00:16.121Z,15.30
2018-09-24T17:02:49.498Z,15.29
2018-09-24T17:05:23.079Z,15.25
2018-09-24T17:07:56.573Z,15.19
2018-09-24T17:10:30.015Z,15.15
2018-09-24T17:13:03.733Z,15.10
2018-09-24T17:15:38.261Z,15.07
2018-09-24T17:18:12.036Z,15.06
2018-09-24T17:20:45.667Z,15.04
2018-09-24T17:23:19.176Z,15.03
2018-09-24T17:25:52.569Z,15.01
2018-09-24T17:28:26.168Z,15.00
2018-09-24T17:30:59.724Z,15.02
2018-09-24T17:33:33.136Z,15.04
2018-09-24T17:36:06.746Z,15.04
2018-09-24T17:38:40.222Z,15.03
2018-09-24T17:41:13.759Z,15.02
2018-09-24T17:43:47.283Z,15.00
2018-09-24T17:46:20.817Z,14.99
2018-09-24T17:48:54.332Z,14.98
2018-09-24T17:51:27.859Z,14.94
2018-09-24T17:54:01.329Z,14.94
2018-09-24T17:56:34.815Z,14.93
2018-09-24T17:59:08.425Z,14.89
2018-09-24T18:01:42.095Z,14.84
2018-09-24T18:04:15.506Z,14.78
2018-09-24T18:06:48.891Z,14.73
2018-09-24T18:09:22.538Z,14.68
2018-09-24T18:11:56.078Z,14.64
2018-09-24T18:14:29.654Z,14.60
2018-09-24T18:17:03.082Z,14.55
2018-09-24T18:19:36.707Z,14.51
2018-09-24T18:22:10.186Z,14.45
2018-09-24T18:24:43.734Z,14.41
2018-09-24T18:27:17.196Z,14.36
2018-09-24T18:29:50.718Z,14.32
2018-09-24T18:32:24.283Z,14.27
2018-09-24T18:34:57.782Z,14.22
2018-09-24T18:37:31.304Z,14.16
2018-09-24T18:40:04.717Z,14.13
2018-09-24T18:42:38.205Z,14.08
2018-09-24T18:45:11.675Z,14.06
2018-09-24T18:47:45.062Z,14.04
2018-09-24T18:50:18.627Z,14.01
2018-09-24T18:52:52.206Z,14.00
2018-09-24T18:55:25.702Z,13.98
2018-09-24T18:57:59.156Z,13.98
2018-09-24T19:00:32.686Z,13.97
2018-09-24T19:03:06.183Z,13.96
2018-09-24T19:05:39.626Z,13.96
2018-09-24T19:08:13.154Z,13.96
2018-09-24T19:10:46.615Z,13.96
2018-09-24T19:13:20.153Z,13.96
2018-09-24T19:15:53.721Z,13.96
2018-09-24T19:18:27.216Z,13.98
2018-09-24T19:21:00.724Z,13.97
2018-09-24T19:23:34.259Z,13.99
2018-09-24T19:26:07.774Z,13.98
2018-09-24T19:28:41.316Z,13.96
2018-09-24T19:31:14.936Z,13.91
2018-09-24T19:33:48.427Z,13.85
2018-09-24T19:36:21.959Z,13.80
2018-09-24T19:38:55.476Z,13.76
2018-09-24T19:41:29.070Z,13.71
2018-09-24T19:44:02.672Z,13.64
2018-09-24T19:46:36.207Z,13.58
2018-09-24T19:49:09.658Z,13.52
2018-09-24T19:51:43.175Z,13.46
2018-09-24T19:54:16.758Z,13.43
2018-09-24T19:56:50.258Z,13.37
2018-09-24T19:59:23.811Z,13.32
2018-09-24T20:01:57.362Z,13.28
2018-09-24T20:04:30.958Z,13.22
2018-09-24T20:07:04.467Z,13.18
2018-09-24T20:09:45.444Z,13.16
2018-09-24T20:12:19.019Z,13.14
2018-09-24T20:14:52.514Z,13.12
2018-09-24T20:17:26.017Z,13.13
2018-09-24T20:19:59.436Z,13.15
2018-09-24T20:22:32.991Z,13.13
2018-09-24T20:25:06.490Z,13.13
2018-09-24T20:27:39.966Z,13.12
2018-09-24T20:30:13.530Z,13.12
2018-09-24T20:32:47.188Z,13.17
2018-09-24T20:35:20.637Z,13.20
2018-09-24T20:37:54.058Z,13.19
2018-09-24T20:40:27.622Z,13.21
2018-09-24T20:43:01.117Z,13.26
2018-09-24T20:45:34.675Z,13.27
2018-09-24T20:48:08.223Z,13.29
2018-09-24T20:50:41.723Z,13.30
2018-09-24T20:53:15.233Z,13.31
2018-09-24T20:55:48.658Z,13.30
2018-09-24T20:58:22.249Z,13.28
2018-09-24T21:00:55.829Z,13.27
2018-09-24T21:03:29.359Z,13.26
2018-09-24T21:06:02.944Z,13.22
2018-09-24T21:08:36.479Z,13.21
2018-09-24T21:11:10.043Z,13.20
2018-09-24T21:13:43.486Z,13.18
2018-09-24T21:16:17.119Z,13.16
2018-09-24T21:18:50.654Z,13.14
2018-09-24T21:21:24.237Z,13.14
2018-09-24T21:23:57.703Z,13.14
2018-09-24T21:26:31.205Z,13.13
2018-09-24T21:29:04.747Z,13.16
2018-09-24T21:31:38.300Z,13.14
2018-09-24T21:34:11.951Z,13.14
2018-09-24T21:36:46.129Z,13.12
2018-09-24T21:39:19.689Z,13.10
2018-09-24T21:41:59.684Z,13.05
2018-09-24T21:44:33.202Z,13.01
2018-09-24T21:47:06.814Z,12.97
2018-09-24T21:49:40.482Z,12.92
2018-09-24T21:52:14.054Z,12.79
2018-09-24T21:54:47.599Z,12.86
2018-09-24T21:57:21.147Z,12.86
2018-09-24T21:59:55.168Z,12.88
2018-09-24T22:02:28.715Z,12.88
2018-09-24T22:05:02.260Z,12.87
2018-09-24T22:07:35.819Z,12.90
2018-09-24T22:10:09.329Z,12.93
2018-09-24T22:12:43.419Z,12.91
2018-09-24T22:15:17.055Z,12.84
2018-09-24T22:17:50.707Z,12.78
2018-09-24T22:20:24.377Z,12.76
2018-09-24T22:22:57.973Z,12.72
2018-09-24T22:25:32.291Z,12.64
2018-09-24T22:28:05.738Z,12.58
2018-09-24T22:30:39.291Z,12.52
2018-09-24T22:33:12.869Z,12.47
2018-09-24T22:35:46.903Z,12.45
2018-09-24T22:38:20.362Z,12.45
2018-09-24T22:40:54.455Z,12.44
2018-09-24T22:43:27.967Z,12.40
2018-09-24T22:46:01.409Z,12.36
2018-09-24T22:48:34.959Z,12.32
2018-09-24T22:51:08.522Z,12.28
2018-09-24T22:53:48.766Z,12.24
2018-09-24T22:56:22.315Z,12.20
2018-09-24T22:58:55.919Z,12.17
2018-09-24T23:01:29.487Z,12.14
2018-09-24T23:04:03.004Z,12.11
2018-09-24T23:06:36.541Z,12.08
2018-09-24T23:09:10.799Z,12.04
2018-09-24T23:11:44.381Z,12.01
2018-09-24T23:14:17.939Z,11.98
2018-09-24T23:16:51.530Z,11.96
2018-09-24T23:19:25.019Z,12.00
2018-09-24T23:21:58.494Z,12.04
2018-09-24T23:24:32.060Z,12.06
2018-09-24T23:27:05.623Z,12.06
2018-09-24T23:29:39.209Z,12.04
2018-09-24T23:32:12.700Z,12.03
2018-09-24T23:34:46.190Z,11.98
2018-09-24T23:37:19.784Z,11.94
2018-09-24T23:39:53.391Z,11.89
2018-09-24T23:42:27.014Z,11.87
2018-09-24T23:45:00.580Z,11.87
2018-09-24T23:47:34.205Z,11.89
2018-09-24T23:50:07.813Z,11.92
2018-09-24T23:52:41.453Z,11.92
2018-09-24T23:55:15.015Z,11.89
2018-09-24T23:57:48.552Z,11.86
